createdAt,value
2023-08-01T00:00:36.904Z,66.06
2023-08-01T00:01:36.985Z,61.00
2023-08-01T00:02:36.891Z,58.47
2023-08-01T00:03:36.854Z,62.96
2023-08-01T00:04:36.827Z,66.11
2023-08-01T00:05:36.843Z,61.28
2023-08-01T00:06:36.813Z,61.50
2023-08-01T00:07:38.120Z,59.51
2023-08-01T00:08:36.837Z,57.72
2023-08-01T00:09:36.772Z,59.43
2023-08-01T00:10:36.790Z,62.17
2023-08-01T00:11:36.791Z,65.02
2023-08-01T00:12:36.766Z,64.00
2023-08-01T00:13:36.840Z,60.13
2023-08-01T00:14:36.817Z,61.62
2023-08-01T00:15:36.766Z,65.95
2023-08-01T00:16:36.800Z,61.18
2023-08-01T00:17:36.753Z,60.35
2023-08-01T00:18:36.748Z,66.04
2023-08-01T00:19:36.762Z,58.02
2023-08-01T00:20:36.683Z,61.63
2023-08-01T00:21:36.712Z,60.31
2023-08-01T00:22:36.674Z,65.14
2023-08-01T00:23:36.682Z,61.63
2023-08-01T00:24:36.672Z,65.64
2023-08-01T00:25:36.742Z,62.25
2023-08-01T00:26:36.637Z,65.78
2023-08-01T00:27:40.040Z,62.88
2023-08-01T00:28:36.629Z,61.44
2023-08-01T00:29:36.647Z,63.96
2023-08-01T00:30:36.622Z,66.01
2023-08-01T00:31:36.721Z,66.65
2023-08-01T00:32:36.646Z,62.09
2023-08-01T00:33:36.577Z,61.11
2023-08-01T00:34:36.568Z,63.81
2023-08-01T00:35:37.352Z,63.93
2023-08-01T00:36:36.571Z,59.58
2023-08-01T00:37:36.627Z,63.62
2023-08-01T00:38:36.532Z,64.99
2023-08-01T00:39:36.523Z,62.61
2023-08-01T00:40:36.536Z,63.18
2023-08-01T00:41:36.525Z,62.90
2023-08-01T00:42:36.507Z,66.30
2023-08-01T00:43:36.551Z,62.61
2023-08-01T00:44:36.497Z,65.86
2023-08-01T00:45:36.521Z,66.29
2023-08-01T00:46:36.477Z,62.77
2023-08-01T00:47:36.497Z,65.54
2023-08-01T00:48:36.470Z,62.64
2023-08-01T00:49:36.486Z,64.56
2023-08-01T00:50:36.415Z,63.86
2023-08-01T00:51:36.424Z,61.61
2023-08-01T00:52:36.417Z,65.89
2023-08-01T00:53:36.407Z,65.58
2023-08-01T00:54:36.461Z,62.82
2023-08-01T00:55:36.403Z,65.78
2023-08-01T00:56:36.372Z,58.62
2023-08-01T00:57:36.376Z,62.03
2023-08-01T00:58:36.361Z,62.82
2023-08-01T00:59:36.443Z,66.68
2023-08-01T01:00:36.406Z,65.07
2023-08-01T01:01:36.383Z,62.55
2023-08-01T01:02:36.456Z,60.92
2023-08-01T01:03:36.323Z,64.63
2023-08-01T01:04:36.351Z,63.94
2023-08-01T01:05:36.301Z,59.87
2023-08-01T01:06:36.327Z,61.97
2023-08-01T01:07:36.288Z,61.39
2023-08-01T01:08:36.266Z,63.38
2023-08-01T01:09:36.283Z,66.45
2023-08-01T01:10:36.273Z,64.80
2023-08-01T01:11:36.253Z,62.08
2023-08-01T01:12:36.331Z,61.98
2023-08-01T01:13:36.307Z,65.69
2023-08-01T01:14:36.223Z,63.54
2023-08-01T01:15:36.218Z,63.02
2023-08-01T01:16:36.218Z,61.07
2023-08-01T01:17:36.206Z,64.98
2023-08-01T01:18:36.235Z,66.74
2023-08-01T01:19:36.178Z,64.06
2023-08-01T01:20:36.178Z,63.40
2023-08-01T01:21:36.161Z,63.38
2023-08-01T01:22:36.175Z,60.29
2023-08-01T01:23:36.135Z,63.45
2023-08-01T01:24:36.160Z,59.88
2023-08-01T01:25:36.150Z,63.39
2023-08-01T01:26:36.132Z,61.95
2023-08-01T01:27:36.123Z,60.62
2023-08-01T01:28:36.151Z,60.40
2023-08-01T01:29:36.101Z,60.15
2023-08-01T01:30:36.143Z,62.59
2023-08-01T01:31:36.079Z,63.96
2023-08-01T01:32:36.080Z,64.49
2023-08-01T01:33:36.104Z,61.37
2023-08-01T01:34:36.034Z,59.24
2023-08-01T01:35:36.037Z,62.73
2023-08-01T01:36:36.045Z,63.56
2023-08-01T01:37:36.038Z,63.26
2023-08-01T01:38:35.996Z,62.65
2023-08-01T01:39:36.078Z,65.70
2023-08-01T01:40:35.991Z,61.94
2023-08-01T01:41:35.987Z,64.41
2023-08-01T01:42:35.970Z,66.18
2023-08-01T01:43:35.974Z,59.64
2023-08-01T01:44:35.990Z,62.21
2023-08-01T01:45:36.026Z,64.16
2023-08-01T01:46:36.024Z,65.03
2023-08-01T01:47:35.984Z,60.74
2023-08-01T01:48:35.913Z,63.42
2023-08-01T01:49:35.916Z,63.79
2023-08-01T01:50:35.910Z,61.44
2023-08-01T01:51:35.950Z,62.36
2023-08-01T01:52:35.894Z,60.73
2023-08-01T01:53:35.890Z,58.66
2023-08-01T01:54:35.885Z,65.47
2023-08-01T01:55:35.874Z,62.93
2023-08-01T01:56:35.899Z,61.97
2023-08-01T01:57:35.994Z,64.66
2023-08-01T01:58:35.836Z,63.17
2023-08-01T01:59:35.831Z,67.13
2023-08-01T02:00:35.838Z,64.38
2023-08-01T02:01:35.815Z,63.96
2023-08-01T02:02:35.796Z,66.36
2023-08-01T02:03:35.819Z,69.09
2023-08-01T02:04:35.869Z,67.00
2023-08-01T02:05:35.830Z,67.17
2023-08-01T02:06:35.759Z,68.64
2023-08-01T02:07:35.777Z,64.94
2023-08-01T02:08:35.748Z,63.41
2023-08-01T02:09:35.752Z,59.97
2023-08-01T02:10:35.759Z,64.97
2023-08-01T02:11:35.788Z,62.52
2023-08-01T02:12:35.727Z,63.68
2023-08-01T02:13:35.744Z,67.01
2023-08-01T02:14:35.718Z,66.87
2023-08-01T02:15:35.714Z,64.50
2023-08-01T02:16:35.852Z,69.34
2023-08-01T02:17:35.765Z,66.36
2023-08-01T02:18:35.668Z,66.87
2023-08-01T02:19:35.666Z,65.97
2023-08-01T02:20:35.653Z,64.96
2023-08-01T02:21:35.644Z,67.68
2023-08-01T02:22:35.637Z,64.12
2023-08-01T02:23:35.701Z,66.01
2023-08-01T02:24:35.625Z,69.70
2023-08-01T02:25:35.624Z,68.68
2023-08-01T02:26:35.599Z,63.17
2023-08-01T02:27:35.602Z,69.30
2023-08-01T02:28:35.671Z,66.89
2023-08-01T02:29:35.621Z,64.60
2023-08-01T02:30:35.578Z,66.71
2023-08-01T02:31:35.607Z,66.57
2023-08-01T02:32:35.658Z,64.45
2023-08-01T02:33:35.658Z,61.92
2023-08-01T02:34:35.530Z,68.26
2023-08-01T02:35:35.570Z,67.15
2023-08-01T02:36:35.531Z,65.75
2023-08-01T02:37:35.520Z,66.60
2023-08-01T02:38:35.539Z,66.26
2023-08-01T02:39:35.497Z,67.97
2023-08-01T02:40:35.483Z,69.47
2023-08-01T02:41:35.504Z,66.70
2023-08-01T02:42:35.474Z,65.62
2023-08-01T02:43:35.471Z,67.19
2023-08-01T02:44:35.508Z,66.72
2023-08-01T02:45:35.465Z,66.14
2023-08-01T02:46:35.444Z,68.09
2023-08-01T02:47:35.494Z,61.52
2023-08-01T02:48:35.420Z,65.07
2023-08-01T02:49:35.444Z,65.71
2023-08-01T02:50:35.910Z,70.61
2023-08-01T02:51:35.410Z,64.96
2023-08-01T02:52:42.971Z,64.66
2023-08-01T02:53:35.392Z,65.06
2023-08-01T02:54:35.396Z,67.74
2023-08-01T02:55:35.366Z,71.57
2023-08-01T02:56:35.392Z,65.76
2023-08-01T02:57:35.359Z,65.28
2023-08-01T02:58:35.416Z,65.78
2023-08-01T02:59:35.340Z,62.89
2023-08-01T03:00:35.329Z,66.61
2023-08-01T03:01:35.374Z,62.96
2023-08-01T03:02:35.341Z,67.32
2023-08-01T03:03:35.379Z,68.89
2023-08-01T03:04:45.889Z,70.18
2023-08-01T03:05:36.279Z,65.69
2023-08-01T03:06:35.268Z,66.87
2023-08-01T03:07:35.265Z,67.16
2023-08-01T03:08:35.312Z,68.84
2023-08-01T03:09:35.248Z,67.96
2023-08-01T03:10:37.164Z,67.29
2023-08-01T03:11:35.229Z,72.11
2023-08-01T03:12:35.224Z,69.56
2023-08-01T03:13:35.235Z,64.55
2023-08-01T03:14:35.220Z,67.07
2023-08-01T03:15:35.195Z,65.59
2023-08-01T03:16:35.183Z,66.16
2023-08-01T03:17:35.218Z,67.94
2023-08-01T03:18:35.152Z,67.25
2023-08-01T03:19:35.540Z,68.38
2023-08-01T03:20:35.183Z,63.15
2023-08-01T03:21:35.169Z,67.32
2023-08-01T03:22:35.128Z,68.36
2023-08-01T03:23:35.126Z,63.74
2023-08-01T03:24:35.111Z,66.71
2023-08-01T03:25:35.147Z,69.08
2023-08-01T03:26:35.117Z,65.04
2023-08-01T03:27:35.118Z,65.43
2023-08-01T03:28:35.230Z,65.90
2023-08-01T03:29:35.105Z,64.40
2023-08-01T03:30:35.119Z,69.75
2023-08-01T03:31:35.105Z,67.94
2023-08-01T03:32:35.045Z,66.20
2023-08-01T03:33:35.037Z,64.57
2023-08-01T03:34:35.080Z,69.50
2023-08-01T03:35:35.036Z,67.46
2023-08-01T03:36:35.035Z,63.94
2023-08-01T03:37:35.108Z,66.29
2023-08-01T03:38:34.993Z,68.36
2023-08-01T03:39:34.990Z,65.73
2023-08-01T03:40:34.966Z,66.41
2023-08-01T03:41:35.047Z,65.60
2023-08-01T03:42:34.956Z,65.39
2023-08-01T03:43:34.990Z,69.90
2023-08-01T03:44:34.960Z,70.90
2023-08-01T03:45:34.993Z,65.78
2023-08-01T03:46:34.938Z,66.90
2023-08-01T03:47:34.977Z,70.57
2023-08-01T03:48:34.899Z,69.40
2023-08-01T03:49:34.970Z,66.62
2023-08-01T03:50:34.879Z,66.89
2023-08-01T03:51:34.982Z,71.09
2023-08-01T03:52:34.883Z,64.51
2023-08-01T03:53:34.880Z,66.75
2023-08-01T03:54:34.847Z,67.54
2023-08-01T03:55:34.884Z,69.65
2023-08-01T03:56:34.893Z,69.16
2023-08-01T03:57:34.870Z,71.18
2023-08-01T03:58:34.814Z,70.38
2023-08-01T03:59:34.855Z,67.75
2023-08-01T04:00:34.807Z,66.17
2023-08-01T04:01:34.874Z,68.99
2023-08-01T04:02:34.813Z,69.18
2023-08-01T04:03:34.839Z,69.53
2023-08-01T04:04:34.762Z,69.31
2023-08-01T04:05:34.759Z,71.11
2023-08-01T04:06:34.764Z,68.78
2023-08-01T04:07:34.819Z,64.91
2023-08-01T04:08:34.777Z,66.08
2023-08-01T04:09:34.793Z,65.52
2023-08-01T04:10:34.768Z,66.33
2023-08-01T04:11:34.737Z,68.98
2023-08-01T04:12:34.709Z,70.26
2023-08-01T04:13:34.783Z,67.60
2023-08-01T04:14:34.688Z,69.74
2023-08-01T04:15:34.730Z,70.53
2023-08-01T04:16:34.680Z,70.85
2023-08-01T04:17:34.771Z,70.79
2023-08-01T04:18:34.726Z,67.06
2023-08-01T04:19:34.713Z,68.12
2023-08-01T04:20:34.633Z,69.37
2023-08-01T04:21:34.625Z,68.61
2023-08-01T04:22:34.673Z,67.77
2023-08-01T04:23:34.605Z,69.49
2023-08-01T04:24:34.609Z,69.38
2023-08-01T04:25:34.691Z,67.09
2023-08-01T04:26:34.579Z,66.83
2023-08-01T04:27:34.594Z,66.27
2023-08-01T04:28:34.635Z,67.58
2023-08-01T04:29:34.561Z,66.00
2023-08-01T04:30:34.614Z,68.54
2023-08-01T04:31:34.600Z,70.49
2023-08-01T04:32:34.529Z,69.65
2023-08-01T04:33:34.518Z,72.99
2023-08-01T04:34:34.527Z,72.52
2023-08-01T04:35:34.519Z,70.97
2023-08-01T04:36:34.568Z,72.22
2023-08-01T04:37:34.485Z,71.42
2023-08-01T04:38:34.508Z,68.82
2023-08-01T04:39:34.543Z,73.58
2023-08-01T04:40:34.475Z,69.80
2023-08-01T04:41:34.449Z,69.08
2023-08-01T04:42:34.487Z,67.32
2023-08-01T04:43:34.426Z,71.08
2023-08-01T04:44:34.434Z,71.86
2023-08-01T04:45:34.451Z,66.13
2023-08-01T04:46:34.490Z,69.88
2023-08-01T04:47:34.452Z,69.29
2023-08-01T04:48:34.415Z,71.61
2023-08-01T04:49:34.412Z,70.23
2023-08-01T04:50:34.375Z,68.90
2023-08-01T04:51:34.359Z,66.10
2023-08-01T04:52:34.392Z,69.18
2023-08-01T04:53:34.358Z,66.21
2023-08-01T04:54:34.355Z,70.55
2023-08-01T04:55:34.399Z,64.99
2023-08-01T04:56:34.332Z,68.55
2023-08-01T04:57:34.337Z,68.97
2023-08-01T04:58:34.361Z,67.02
2023-08-01T04:59:34.297Z,68.57
2023-08-01T05:00:34.321Z,69.63
2023-08-01T05:01:34.289Z,63.82
2023-08-01T05:02:34.286Z,71.69
2023-08-01T05:03:34.386Z,68.92
2023-08-01T05:04:34.256Z,70.91
2023-08-01T05:05:34.239Z,68.00
2023-08-01T05:06:34.237Z,63.96
2023-08-01T05:07:34.284Z,65.94
2023-08-01T05:08:34.227Z,69.43
2023-08-01T05:09:34.202Z,66.97
2023-08-01T05:10:34.227Z,67.95
2023-08-01T05:11:34.194Z,67.22
2023-08-01T05:12:34.206Z,65.92
2023-08-01T05:13:34.234Z,65.63
2023-08-01T05:14:34.164Z,70.13
2023-08-01T05:15:34.158Z,70.33
2023-08-01T05:16:34.194Z,70.37
2023-08-01T05:17:34.181Z,66.30
2023-08-01T05:18:34.144Z,67.24
2023-08-01T05:19:34.185Z,69.58
2023-08-01T05:20:34.177Z,67.72
2023-08-01T05:21:34.153Z,69.10
2023-08-01T05:22:34.103Z,70.29
2023-08-01T05:23:34.107Z,69.19
2023-08-01T05:24:34.093Z,68.28
2023-08-01T05:25:34.095Z,65.65
2023-08-01T05:26:34.091Z,67.74
2023-08-01T05:27:34.091Z,66.77
2023-08-01T05:28:34.089Z,69.61
2023-08-01T05:29:34.026Z,68.13
2023-08-01T05:30:34.071Z,69.91
2023-08-01T05:31:34.065Z,69.64
2023-08-01T05:32:34.072Z,64.24
2023-08-01T05:33:34.015Z,67.39
2023-08-01T05:34:34.013Z,68.38
2023-08-01T05:35:34.046Z,67.90
2023-08-01T05:36:33.977Z,69.70
2023-08-01T05:37:33.961Z,67.25
2023-08-01T05:38:33.973Z,66.91
2023-08-01T05:39:34.013Z,67.16
2023-08-01T05:40:33.987Z,71.06
2023-08-01T05:41:33.968Z,69.43
2023-08-01T05:42:33.947Z,66.40
2023-08-01T05:43:33.921Z,67.55
2023-08-01T05:44:34.138Z,70.23
2023-08-01T05:45:34.875Z,68.71
2023-08-01T05:46:33.987Z,67.29
2023-08-01T05:47:34.137Z,67.05
2023-08-01T05:48:33.881Z,68.13
2023-08-01T05:49:33.973Z,69.46
2023-08-01T05:50:34.395Z,70.73
2023-08-01T05:51:34.049Z,69.89
2023-08-01T05:52:33.849Z,70.31
2023-08-01T05:53:33.820Z,67.39
2023-08-01T05:54:33.821Z,67.00
2023-08-01T05:55:33.816Z,68.10
2023-08-01T05:56:34.052Z,66.99
2023-08-01T05:57:33.818Z,69.39
2023-08-01T05:58:33.778Z,65.40
2023-08-01T05:59:33.784Z,67.11
2023-08-01T06:00:33.841Z,69.28
2023-08-01T06:01:33.902Z,67.68
2023-08-01T06:02:33.781Z,66.79
2023-08-01T06:03:33.874Z,65.91
2023-08-01T06:04:33.757Z,66.89
2023-08-01T06:05:33.732Z,69.11
2023-08-01T06:06:33.756Z,68.21
2023-08-01T06:07:33.699Z,67.86
2023-08-01T06:08:34.161Z,66.67
2023-08-01T06:09:34.040Z,67.78
2023-08-01T06:10:34.403Z,66.58
2023-08-01T06:11:33.666Z,64.01
2023-08-01T06:12:33.670Z,67.90
2023-08-01T06:13:33.638Z,68.80
2023-08-01T06:14:33.648Z,65.08
2023-08-01T06:15:34.476Z,63.65
2023-08-01T06:16:33.722Z,65.80
2023-08-01T06:17:33.696Z,66.80
2023-08-01T06:18:33.618Z,60.86
2023-08-01T06:19:33.602Z,63.28
2023-08-01T06:20:33.622Z,62.14
2023-08-01T06:21:33.594Z,63.20
2023-08-01T06:22:33.694Z,64.99
2023-08-01T06:23:33.609Z,67.92
2023-08-01T06:24:33.564Z,64.28
2023-08-01T06:25:33.574Z,63.50
2023-08-01T06:26:33.546Z,66.68
2023-08-01T06:27:33.521Z,65.32
2023-08-01T06:28:33.581Z,68.18
2023-08-01T06:29:33.499Z,64.11
2023-08-01T06:30:34.091Z,65.77
2023-08-01T06:31:33.550Z,66.62
2023-08-01T06:32:33.564Z,67.53
2023-08-01T06:33:33.471Z,67.31
2023-08-01T06:34:33.505Z,63.64
2023-08-01T06:35:35.392Z,62.21
2023-08-01T06:36:33.831Z,66.00
2023-08-01T06:37:33.648Z,65.99
2023-08-01T06:38:33.478Z,65.79
2023-08-01T06:39:33.537Z,65.03
2023-08-01T06:40:33.850Z,63.34
2023-08-01T06:41:33.419Z,61.88
2023-08-01T06:42:33.418Z,61.77
2023-08-01T06:43:33.401Z,62.47
2023-08-01T06:44:33.389Z,63.12
2023-08-01T06:45:33.487Z,66.12
2023-08-01T06:46:33.479Z,65.66
2023-08-01T06:47:33.450Z,64.89
2023-08-01T06:48:33.918Z,62.56
2023-08-01T06:49:33.508Z,63.23
2023-08-01T06:50:33.406Z,64.91
2023-08-01T06:51:33.348Z,66.06
2023-08-01T06:52:33.668Z,62.43
2023-08-01T06:53:33.307Z,63.40
2023-08-01T06:54:33.501Z,65.41
2023-08-01T06:55:33.297Z,61.99
2023-08-01T06:56:33.316Z,62.65
2023-08-01T06:57:33.263Z,64.78
2023-08-01T06:58:33.519Z,68.41
2023-08-01T06:59:33.324Z,64.49
2023-08-01T07:00:33.263Z,67.61
2023-08-01T07:01:33.254Z,64.95
2023-08-01T07:02:33.243Z,64.37
2023-08-01T07:03:33.287Z,65.74
2023-08-01T07:04:33.224Z,65.94
2023-08-01T07:05:33.906Z,65.68
2023-08-01T07:06:33.217Z,62.65
2023-08-01T07:07:33.197Z,64.36
2023-08-01T07:08:33.592Z,65.92
2023-08-01T07:09:33.454Z,63.36
2023-08-01T07:10:33.205Z,62.09
2023-08-01T07:11:33.175Z,66.57
2023-08-01T07:12:33.177Z,67.75
2023-08-01T07:13:33.216Z,64.55
2023-08-01T07:14:33.155Z,62.10
2023-08-01T07:15:33.123Z,67.46
2023-08-01T07:16:33.119Z,66.95
2023-08-01T07:17:33.674Z,65.26
2023-08-01T07:18:33.160Z,63.92
2023-08-01T07:19:33.098Z,64.13
2023-08-01T07:20:33.083Z,66.51
2023-08-01T07:21:33.069Z,65.06
2023-08-01T07:22:33.080Z,64.97
2023-08-01T07:23:33.058Z,66.75
2023-08-01T07:24:33.077Z,62.74
2023-08-01T07:25:33.030Z,62.51
2023-08-01T07:26:33.032Z,65.20
2023-08-01T07:27:33.034Z,65.48
2023-08-01T07:28:33.029Z,64.40
2023-08-01T07:29:33.044Z,63.30
2023-08-01T07:30:33.028Z,67.12
2023-08-01T07:31:32.986Z,63.94
2023-08-01T07:32:33.028Z,63.74
2023-08-01T07:33:32.960Z,65.53
2023-08-01T07:34:32.968Z,64.70
2023-08-01T07:35:32.997Z,63.25
2023-08-01T07:36:32.966Z,64.71
2023-08-01T07:37:32.966Z,63.82
2023-08-01T07:38:33.059Z,66.06
2023-08-01T07:39:32.897Z,65.23
2023-08-01T07:40:32.906Z,67.10
2023-08-01T07:41:32.925Z,63.54
2023-08-01T07:42:32.890Z,64.80
2023-08-01T07:43:32.873Z,64.99
2023-08-01T07:44:32.893Z,67.23
2023-08-01T07:45:32.864Z,62.87
2023-08-01T07:46:32.853Z,66.61
2023-08-01T07:47:32.915Z,65.36
2023-08-01T07:48:32.835Z,65.50
2023-08-01T07:49:32.825Z,63.38
2023-08-01T07:50:32.810Z,62.67
2023-08-01T07:51:32.789Z,63.43
2023-08-01T07:52:32.841Z,65.27
2023-08-01T07:53:32.783Z,66.50
2023-08-01T07:54:32.846Z,68.15
2023-08-01T07:55:32.781Z,64.72
2023-08-01T07:56:32.844Z,64.03
2023-08-01T07:57:32.749Z,64.64
2023-08-01T07:58:32.804Z,64.78
2023-08-01T07:59:32.753Z,65.42
2023-08-01T08:00:32.780Z,63.80
2023-08-01T08:01:32.787Z,64.99
2023-08-01T08:02:32.752Z,64.11
2023-08-01T08:03:32.734Z,62.82
2023-08-01T08:04:32.764Z,63.54
2023-08-01T08:05:32.721Z,65.16
2023-08-01T08:06:32.682Z,65.26
2023-08-01T08:07:32.690Z,66.18
2023-08-01T08:08:32.743Z,64.47
2023-08-01T08:09:32.734Z,67.63
2023-08-01T08:10:32.770Z,65.92
2023-08-01T08:11:32.637Z,64.78
2023-08-01T08:12:32.641Z,63.29
2023-08-01T08:13:32.628Z,65.48
2023-08-01T08:14:32.618Z,62.96
2023-08-01T08:15:32.690Z,66.25
2023-08-01T08:16:32.703Z,69.73
2023-08-01T08:17:32.664Z,66.14
2023-08-01T08:18:32.666Z,65.63
2023-08-01T08:19:32.602Z,66.12
2023-08-01T08:20:32.849Z,66.07
2023-08-01T08:21:33.066Z,61.66
2023-08-01T08:22:32.565Z,67.20
2023-08-01T08:23:32.548Z,65.24
2023-08-01T08:24:32.541Z,65.40
2023-08-01T08:25:32.577Z,59.32
2023-08-01T08:26:32.776Z,65.87
2023-08-01T08:27:32.591Z,66.50
2023-08-01T08:28:32.596Z,67.00
2023-08-01T08:29:32.500Z,64.94
2023-08-01T08:30:32.552Z,64.38
2023-08-01T08:31:32.555Z,64.53
2023-08-01T08:32:32.490Z,64.70
2023-08-01T08:33:32.504Z,63.54
2023-08-01T08:34:32.596Z,64.86
2023-08-01T08:35:32.479Z,64.67
2023-08-01T08:36:32.634Z,63.63
2023-08-01T08:37:32.473Z,66.08
2023-08-01T08:38:32.452Z,63.56
2023-08-01T08:39:32.418Z,64.56
2023-08-01T08:40:32.432Z,63.82
2023-08-01T08:41:32.390Z,66.30
2023-08-01T08:42:32.413Z,62.05
2023-08-01T08:43:32.431Z,62.30
2023-08-01T08:44:32.380Z,66.10
2023-08-01T08:45:32.388Z,65.42
2023-08-01T08:46:32.574Z,63.30
2023-08-01T08:47:32.436Z,63.16
2023-08-01T08:48:33.028Z,65.61
2023-08-01T08:49:32.370Z,65.14
2023-08-01T08:50:32.508Z,64.46
2023-08-01T08:51:32.342Z,63.28
2023-08-01T08:52:32.564Z,62.42
2023-08-01T08:53:32.369Z,62.65
2023-08-01T08:54:32.295Z,62.48
2023-08-01T08:55:32.443Z,66.44
2023-08-01T08:56:32.273Z,63.96
2023-08-01T08:57:32.291Z,62.79
2023-08-01T08:58:32.520Z,60.46
2023-08-01T08:59:32.283Z,62.36
2023-08-01T09:00:32.425Z,62.57
2023-08-01T09:01:32.321Z,61.23
2023-08-01T09:02:32.301Z,63.79
2023-08-01T09:03:32.524Z,63.82
2023-08-01T09:04:32.249Z,61.81
2023-08-01T09:05:33.468Z,62.45
2023-08-01T09:06:32.171Z,63.12
2023-08-01T09:07:32.184Z,61.57
2023-08-01T09:08:33.226Z,62.84
2023-08-01T09:09:32.283Z,62.72
2023-08-01T09:10:34.123Z,62.21
2023-08-01T09:11:32.137Z,61.97
2023-08-01T09:12:32.127Z,60.22
2023-08-01T09:13:32.144Z,65.19
2023-08-01T09:14:32.138Z,62.88
2023-08-01T09:15:32.114Z,62.30
2023-08-01T09:16:32.186Z,59.72
2023-08-01T09:17:32.159Z,61.60
2023-08-01T09:18:32.198Z,62.19
2023-08-01T09:19:32.093Z,63.32
2023-08-01T09:20:32.867Z,62.81
2023-08-01T09:21:32.720Z,63.58
2023-08-01T09:22:33.221Z,62.33
2023-08-01T09:23:32.317Z,62.56
2023-08-01T09:24:32.236Z,65.07
2023-08-01T09:25:32.300Z,61.84
2023-08-01T09:26:32.006Z,58.54
2023-08-01T09:27:33.038Z,60.77
2023-08-01T09:28:32.040Z,60.68
2023-08-01T09:29:32.011Z,60.22
2023-08-01T09:30:32.002Z,62.87
2023-08-01T09:31:32.306Z,57.60
2023-08-01T09:32:32.016Z,59.75
2023-08-01T09:33:32.007Z,61.50
2023-08-01T09:34:31.975Z,60.65
2023-08-01T09:35:31.960Z,62.43
2023-08-01T09:36:31.933Z,62.93
2023-08-01T09:37:31.942Z,64.19
2023-08-01T09:38:31.966Z,64.50
2023-08-01T09:39:31.915Z,61.16
2023-08-01T09:40:31.902Z,62.58
2023-08-01T09:41:31.918Z,62.40
2023-08-01T09:42:31.886Z,59.50
2023-08-01T09:43:31.910Z,63.10
2023-08-01T09:44:31.966Z,64.63
2023-08-01T09:45:31.908Z,59.95
2023-08-01T09:46:31.901Z,60.56
2023-08-01T09:47:31.892Z,61.00
2023-08-01T09:48:32.021Z,62.13
2023-08-01T09:49:31.962Z,60.34
2023-08-01T09:50:31.836Z,61.25
2023-08-01T09:51:31.810Z,63.42
2023-08-01T09:52:31.817Z,63.28
2023-08-01T09:53:31.817Z,62.01
2023-08-01T09:54:31.825Z,64.06
2023-08-01T09:55:31.870Z,60.01
2023-08-01T09:56:31.823Z,62.25
2023-08-01T09:57:31.775Z,63.28
2023-08-01T09:58:31.771Z,62.55
2023-08-01T09:59:31.761Z,65.40
2023-08-01T10:00:31.760Z,65.12
2023-08-01T10:01:31.762Z,62.20
2023-08-01T10:02:31.946Z,63.60
2023-08-01T10:03:31.782Z,61.58
2023-08-01T10:04:31.836Z,63.33
2023-08-01T10:05:31.705Z,61.58
2023-08-01T10:06:31.701Z,62.26
2023-08-01T10:07:31.699Z,61.01
2023-08-01T10:08:31.745Z,61.81
2023-08-01T10:09:31.677Z,60.35
2023-08-01T10:10:31.671Z,62.56
2023-08-01T10:11:31.687Z,63.58
2023-08-01T10:12:31.709Z,60.87
2023-08-01T10:13:31.657Z,58.79
2023-08-01T10:14:31.651Z,58.49
2023-08-01T10:15:31.678Z,59.28
2023-08-01T10:16:31.622Z,63.12
2023-08-01T10:17:31.674Z,60.87
2023-08-01T10:18:31.643Z,60.99
2023-08-01T10:19:31.601Z,62.94
2023-08-01T10:20:31.585Z,61.41
2023-08-01T10:21:31.580Z,60.98
2023-08-01T10:22:31.551Z,61.05
2023-08-01T10:23:31.567Z,62.65
2023-08-01T10:24:31.564Z,62.18
2023-08-01T10:25:31.553Z,62.18
2023-08-01T10:26:31.529Z,62.36
2023-08-01T10:27:31.526Z,63.99
2023-08-01T10:28:31.536Z,62.80
2023-08-01T10:29:31.617Z,62.81
2023-08-01T10:30:31.534Z,61.81
2023-08-01T10:31:31.530Z,61.66
2023-08-01T10:32:31.484Z,62.67
2023-08-01T10:33:31.777Z,62.33
2023-08-01T10:34:31.468Z,65.20
2023-08-01T10:35:31.637Z,62.74
2023-08-01T10:36:31.467Z,62.60
2023-08-01T10:37:31.444Z,61.73
2023-08-01T10:38:31.427Z,63.42
2023-08-01T10:39:31.428Z,62.18
2023-08-01T10:40:31.422Z,58.78
2023-08-01T10:41:31.441Z,62.98
2023-08-01T10:42:31.400Z,63.33
2023-08-01T10:43:31.406Z,60.74
2023-08-01T10:44:31.385Z,63.71
2023-08-01T10:45:31.383Z,60.57
2023-08-01T10:46:31.367Z,59.07
2023-08-01T10:47:31.541Z,60.25
2023-08-01T10:48:31.354Z,61.90
2023-08-01T10:49:31.349Z,62.14
2023-08-01T10:50:31.325Z,60.21
2023-08-01T10:51:31.346Z,61.79
2023-08-01T10:52:31.331Z,64.37
2023-08-01T10:53:31.364Z,63.13
2023-08-01T10:54:31.367Z,60.58
2023-08-01T10:55:31.312Z,62.10
2023-08-01T10:56:31.297Z,58.74
2023-08-01T10:57:31.353Z,60.73
2023-08-01T10:58:31.260Z,60.97
2023-08-01T10:59:31.302Z,59.68
2023-08-01T11:00:31.254Z,59.66
2023-08-01T11:01:31.297Z,61.57
2023-08-01T11:02:31.274Z,61.23
2023-08-01T11:03:31.285Z,59.71
2023-08-01T11:04:31.288Z,59.86
2023-08-01T11:05:31.241Z,60.27
2023-08-01T11:06:31.216Z,61.95
2023-08-01T11:07:31.209Z,63.38
2023-08-01T11:08:31.187Z,61.78
2023-08-01T11:09:31.195Z,62.15
2023-08-01T11:10:31.214Z,60.23
2023-08-01T11:11:31.181Z,64.12
2023-08-01T11:12:31.155Z,59.85
2023-08-01T11:13:31.151Z,60.94
2023-08-01T11:14:31.256Z,62.28
2023-08-01T11:15:31.171Z,63.01
2023-08-01T11:16:31.124Z,62.33
2023-08-01T11:17:31.146Z,63.52
2023-08-01T11:18:31.095Z,61.03
2023-08-01T11:19:31.116Z,60.02
2023-08-01T11:20:31.090Z,64.67
2023-08-01T11:21:31.165Z,63.46
2023-08-01T11:22:31.989Z,59.75
2023-08-01T11:23:31.087Z,61.86
2023-08-01T11:24:31.056Z,62.37
2023-08-01T11:25:31.070Z,63.66
2023-08-01T11:26:31.080Z,62.89
2023-08-01T11:27:31.054Z,62.73
2023-08-01T11:28:31.011Z,60.15
2023-08-01T11:29:31.010Z,64.95
2023-08-01T11:30:30.996Z,65.24
2023-08-01T11:31:31.028Z,60.86
2023-08-01T11:32:31.019Z,62.62
2023-08-01T11:33:30.968Z,62.10
2023-08-01T11:34:31.069Z,63.43
2023-08-01T11:35:30.961Z,62.12
2023-08-01T11:36:30.949Z,64.13
2023-08-01T11:37:30.993Z,64.92
2023-08-01T11:38:31.100Z,57.65
2023-08-01T11:39:30.930Z,63.27
2023-08-01T11:40:30.914Z,61.30
2023-08-01T11:41:30.930Z,60.56
2023-08-01T11:42:30.910Z,63.82
2023-08-01T11:43:30.920Z,63.97
2023-08-01T11:44:30.910Z,61.06
2023-08-01T11:45:30.940Z,63.58
2023-08-01T11:46:30.864Z,61.90
2023-08-01T11:47:30.855Z,64.43
2023-08-01T11:48:30.835Z,59.68
2023-08-01T11:49:30.849Z,59.20
2023-08-01T11:50:30.850Z,62.47
2023-08-01T11:51:30.864Z,61.80
2023-08-01T11:52:30.816Z,63.50
2023-08-01T11:53:30.897Z,64.70
2023-08-01T11:54:30.778Z,63.87
2023-08-01T11:55:30.786Z,62.27
2023-08-01T11:56:30.847Z,62.66
2023-08-01T11:57:30.807Z,60.13
2023-08-01T11:58:30.752Z,62.56
2023-08-01T11:59:30.760Z,60.70
2023-08-01T12:00:30.758Z,62.22
2023-08-01T12:01:30.836Z,60.57
2023-08-01T12:02:30.803Z,61.98
2023-08-01T12:03:30.777Z,61.27
2023-08-01T12:04:30.821Z,61.96
2023-08-01T12:05:30.732Z,62.02
2023-08-01T12:06:30.728Z,61.46
2023-08-01T12:07:30.738Z,61.79
2023-08-01T12:08:30.657Z,64.66
2023-08-01T12:09:30.662Z,64.66
2023-08-01T12:10:30.671Z,63.41
2023-08-01T12:11:30.663Z,64.62
2023-08-01T12:12:30.651Z,59.75
2023-08-01T12:13:30.668Z,61.34
2023-08-01T12:14:30.662Z,61.05
2023-08-01T12:15:30.657Z,59.75
2023-08-01T12:16:30.736Z,62.47
2023-08-01T12:17:30.642Z,64.30
2023-08-01T12:19:30.626Z,62.00
2023-08-01T12:20:30.602Z,64.91
2023-08-01T12:21:30.595Z,63.75
2023-08-01T12:22:30.544Z,63.87
2023-08-01T12:23:30.608Z,64.14
2023-08-01T12:24:30.592Z,61.99
2023-08-01T12:25:30.685Z,61.38
2023-08-01T12:26:30.694Z,59.74
2023-08-01T12:27:30.548Z,59.81
2023-08-01T12:28:30.501Z,60.10
2023-08-01T12:29:31.117Z,57.41
2023-08-01T12:30:30.522Z,60.49
2023-08-01T12:31:30.510Z,60.45
2023-08-01T12:32:30.532Z,58.79
2023-08-01T12:33:30.534Z,63.53
2023-08-01T12:34:30.483Z,61.53
2023-08-01T12:35:30.535Z,61.86
2023-08-01T12:36:30.540Z,59.70
2023-08-01T12:37:30.490Z,58.86
2023-08-01T12:38:30.413Z,59.14
2023-08-01T12:39:30.430Z,58.24
2023-08-01T12:40:30.393Z,59.75
2023-08-01T12:41:30.446Z,57.90
2023-08-01T12:42:30.377Z,61.25
2023-08-01T12:43:30.420Z,58.26
2023-08-01T12:44:30.454Z,58.38
2023-08-01T12:45:30.432Z,61.47
2023-08-01T12:46:30.396Z,63.08
2023-08-01T12:47:30.386Z,60.57
2023-08-01T12:48:30.376Z,60.95
2023-08-01T12:49:30.427Z,60.20
2023-08-01T12:50:30.319Z,60.34
2023-08-01T12:51:30.321Z,64.58
2023-08-01T12:52:30.302Z,62.34
2023-08-01T12:53:30.365Z,63.34